Terminal Aerodrome Forecast
Issued by NWS

Home | Current Version | Previous Version | Text Only | Print | Product List | Glossary On
Versions: 1 2 3 4 5 6 7 8 9 10 11 12 13 14 15 16 17 18 19 20 21 22 23 24 25 26 27 28 29 30 31 32 33 34 35 36 37 38 39 40 41 42 43 44 45 46 47 48 49 50
000
FTUS43 KLOT 291503 AAA
TAFGYY
TAF AMD
KGYY 291503Z 2915/3012 VRB06KT 6SM BR FEW002 OVC150
     FM291700 06013KT P6SM FEW008 BKN120
     FM292100 07014G22KT P6SM VCSH SCT060 BKN100
     FM300100 09011KT P6SM SCT030 OVC060
     FM300800 09016G25KT 4SM -SHRA BKN030 OVC050 PROB30 3010/3012
      2SM -TSRA OVC030CB=

USA.gov is the U.S. government's official web portal to all federal, state and local government web resources and services.